sensor_id;sensor_type;location;lat;lon;timestamp;P1;durP1;ratioP1;P2;durP2;ratioP2
61358;SDS011;47228;46.762;23.598;2023-04-06T00:02:08;12.80;;;6.70;;
61358;SDS011;47228;46.762;23.598;2023-04-06T00:04:36;13.60;;;7.90;;
61358;SDS011;47228;46.762;23.598;2023-04-06T00:07:04;12.60;;;8.00;;
61358;SDS011;47228;46.762;23.598;2023-04-06T00:09:32;14.10;;;7.10;;
61358;SDS011;47228;46.762;23.598;2023-04-06T00:12:00;12.90;;;7.90;;
61358;SDS011;47228;46.762;23.598;2023-04-06T00:14:28;12.30;;;7.60;;
61358;SDS011;47228;46.762;23.598;2023-04-06T00:16:56;13.20;;;7.90;;
61358;SDS011;47228;46.762;23.598;2023-04-06T00:19:25;10.80;;;6.40;;
61358;SDS011;47228;46.762;23.598;2023-04-06T00:21:53;12.70;;;7.70;;
61358;SDS011;47228;46.762;23.598;2023-04-06T00:24:21;13.50;;;7.30;;
61358;SDS011;47228;46.762;23.598;2023-04-06T00:26:49;12.10;;;7.00;;
61358;SDS011;47228;46.762;23.598;2023-04-06T00:29:17;13.70;;;7.70;;
61358;SDS011;47228;46.762;23.598;2023-04-06T00:31:45;15.90;;;7.70;;
61358;SDS011;47228;46.762;23.598;2023-04-06T00:34:13;13.90;;;7.70;;
61358;SDS011;47228;46.762;23.598;2023-04-06T00:36:43;14.40;;;7.40;;
61358;SDS011;47228;46.762;23.598;2023-04-06T00:39:11;14.40;;;7.90;;
61358;SDS011;47228;46.762;23.598;2023-04-06T00:41:40;13.80;;;8.00;;
61358;SDS011;47228;46.762;23.598;2023-04-06T00:44:14;13.30;;;7.60;;
61358;SDS011;47228;46.762;23.598;2023-04-06T00:46:43;13.80;;;8.10;;
61358;SDS011;47228;46.762;23.598;2023-04-06T00:49:12;17.60;;;7.80;;
61358;SDS011;47228;46.762;23.598;2023-04-06T00:51:40;12.80;;;7.00;;
61358;SDS011;47228;46.762;23.598;2023-04-06T00:54:08;13.90;;;8.00;;
61358;SDS011;47228;46.762;23.598;2023-04-06T00:56:36;15.10;;;8.60;;
61358;SDS011;47228;46.762;23.598;2023-04-06T00:59:04;13.10;;;8.20;;
61358;SDS011;47228;46.762;23.598;2023-04-06T01:01:33;13.40;;;7.70;;
61358;SDS011;47228;46.762;23.598;2023-04-06T01:04:02;15.70;;;9.10;;
61358;SDS011;47228;46.762;23.598;2023-04-06T01:06:30;12.80;;;7.20;;
61358;SDS011;47228;46.762;23.598;2023-04-06T01:08:58;14.60;;;7.40;;
61358;SDS011;47228;46.762;23.598;2023-04-06T01:11:26;15.00;;;8.10;;
61358;SDS011;47228;46.762;23.598;2023-04-06T01:13:55;16.20;;;8.20;;
61358;SDS011;47228;46.762;23.598;2023-04-06T01:16:23;14.60;;;7.90;;
61358;SDS011;47228;46.762;23.598;2023-04-06T01:18:52;16.60;;;7.90;;
61358;SDS011;47228;46.762;23.598;2023-04-06T01:21:20;13.70;;;8.00;;
61358;SDS011;47228;46.762;23.598;2023-04-06T01:23:48;15.00;;;7.60;;
61358;SDS011;47228;46.762;23.598;2023-04-06T01:26:16;14.00;;;8.50;;
61358;SDS011;47228;46.762;23.598;2023-04-06T01:28:44;15.00;;;7.90;;
61358;SDS011;47228;46.762;23.598;2023-04-06T01:31:12;16.10;;;7.60;;
61358;SDS011;47228;46.762;23.598;2023-04-06T01:33:40;13.20;;;7.90;;
61358;SDS011;47228;46.762;23.598;2023-04-06T01:36:08;13.00;;;6.60;;
61358;SDS011;47228;46.762;23.598;2023-04-06T01:38:36;17.20;;;8.20;;
61358;SDS011;47228;46.762;23.598;2023-04-06T01:41:04;14.10;;;8.00;;
61358;SDS011;47228;46.762;23.598;2023-04-06T01:43:32;15.60;;;8.20;;
61358;SDS011;47228;46.762;23.598;2023-04-06T01:46:01;14.40;;;8.10;;
61358;SDS011;47228;46.762;23.598;2023-04-06T01:48:29;16.30;;;8.20;;
61358;SDS011;47228;46.762;23.598;2023-04-06T01:50:57;16.10;;;7.70;;
61358;SDS011;47228;46.762;23.598;2023-04-06T01:53:25;15.60;;;8.20;;
61358;SDS011;47228;46.762;23.598;2023-04-06T01:55:53;15.20;;;8.40;;
61358;SDS011;47228;46.762;23.598;2023-04-06T01:58:21;16.40;;;8.00;;
61358;SDS011;47228;46.762;23.598;2023-04-06T02:00:49;15.90;;;8.40;;
61358;SDS011;47228;46.762;23.598;2023-04-06T02:03:17;16.10;;;8.50;;
61358;SDS011;47228;46.762;23.598;2023-04-06T02:05:46;16.10;;;8.20;;
61358;SDS011;47228;46.762;23.598;2023-04-06T02:08:14;17.30;;;8.90;;
61358;SDS011;47228;46.762;23.598;2023-04-06T02:10:42;17.10;;;8.50;;
61358;SDS011;47228;46.762;23.598;2023-04-06T02:13:10;13.10;;;7.70;;
61358;SDS011;47228;46.762;23.598;2023-04-06T02:15:38;16.90;;;9.00;;
61358;SDS011;47228;46.762;23.598;2023-04-06T02:18:06;18.50;;;8.60;;
61358;SDS011;47228;46.762;23.598;2023-04-06T02:20:34;17.10;;;9.60;;
61358;SDS011;47228;46.762;23.598;2023-04-06T02:23:02;16.10;;;8.70;;
61358;SDS011;47228;46.762;23.598;2023-04-06T02:25:30;14.80;;;9.20;;
61358;SDS011;47228;46.762;23.598;2023-04-06T02:27:58;16.50;;;8.60;;
61358;SDS011;47228;46.762;23.598;2023-04-06T02:30:26;18.90;;;9.50;;
61358;SDS011;47228;46.762;23.598;2023-04-06T02:32:54;17.30;;;10.00;;
61358;SDS011;47228;46.762;23.598;2023-04-06T02:35:22;15.50;;;9.20;;
61358;SDS011;47228;46.762;23.598;2023-04-06T02:37:50;16.70;;;10.00;;
61358;SDS011;47228;46.762;23.598;2023-04-06T02:40:18;18.20;;;9.60;;
61358;SDS011;47228;46.762;23.598;2023-04-06T02:42:46;16.50;;;9.60;;
61358;SDS011;47228;46.762;23.598;2023-04-06T02:45:14;18.40;;;9.00;;
61358;SDS011;47228;46.762;23.598;2023-04-06T02:47:42;16.50;;;9.60;;
61358;SDS011;47228;46.762;23.598;2023-04-06T02:50:11;16.10;;;9.30;;
61358;SDS011;47228;46.762;23.598;2023-04-06T02:52:38;17.00;;;9.80;;
61358;SDS011;47228;46.762;23.598;2023-04-06T02:55:07;18.90;;;9.60;;
61358;SDS011;47228;46.762;23.598;2023-04-06T02:57:35;20.00;;;10.30;;
61358;SDS011;47228;46.762;23.598;2023-04-06T03:00:03;17.70;;;9.30;;
61358;SDS011;47228;46.762;23.598;2023-04-06T03:02:31;19.40;;;10.80;;
61358;SDS011;47228;46.762;23.598;2023-04-06T03:05:00;21.00;;;11.10;;
61358;SDS011;47228;46.762;23.598;2023-04-06T03:07:28;23.40;;;11.20;;
61358;SDS011;47228;46.762;23.598;2023-04-06T03:09:56;23.90;;;10.40;;
61358;SDS011;47228;46.762;23.598;2023-04-06T03:12:24;22.30;;;11.10;;
61358;SDS011;47228;46.762;23.598;2023-04-06T03:14:52;18.40;;;9.90;;
61358;SDS011;47228;46.762;23.598;2023-04-06T03:17:20;20.40;;;10.40;;
61358;SDS011;47228;46.762;23.598;2023-04-06T03:19:48;19.30;;;11.10;;
61358;SDS011;47228;46.762;23.598;2023-04-06T03:22:17;23.20;;;11.30;;
61358;SDS011;47228;46.762;23.598;2023-04-06T03:24:45;20.00;;;10.70;;
61358;SDS011;47228;46.762;23.598;2023-04-06T03:27:13;21.30;;;11.30;;
61358;SDS011;47228;46.762;23.598;2023-04-06T03:29:42;19.20;;;10.60;;
61358;SDS011;47228;46.762;23.598;2023-04-06T03:32:10;23.00;;;10.70;;
61358;SDS011;47228;46.762;23.598;2023-04-06T03:34:38;20.60;;;10.80;;
61358;SDS011;47228;46.762;23.598;2023-04-06T03:37:07;20.60;;;11.30;;
61358;SDS011;47228;46.762;23.598;2023-04-06T03:39:37;24.80;;;11.80;;
61358;SDS011;47228;46.762;23.598;2023-04-06T03:42:05;21.50;;;12.00;;
61358;SDS011;47228;46.762;23.598;2023-04-06T03:44:34;22.50;;;11.10;;
61358;SDS011;47228;46.762;23.598;2023-04-06T03:47:02;24.70;;;12.50;;
61358;SDS011;47228;46.762;23.598;2023-04-06T03:49:30;24.50;;;11.40;;
61358;SDS011;47228;46.762;23.598;2023-04-06T03:51:58;24.00;;;11.90;;
61358;SDS011;47228;46.762;23.598;2023-04-06T03:54:26;23.30;;;12.20;;
61358;SDS011;47228;46.762;23.598;2023-04-06T03:56:54;20.30;;;11.80;;
61358;SDS011;47228;46.762;23.598;2023-04-06T03:59:23;24.30;;;11.60;;
61358;SDS011;47228;46.762;23.598;2023-04-06T04:01:51;22.50;;;11.60;;
61358;SDS011;47228;46.762;23.598;2023-04-06T04:04:19;27.50;;;13.10;;
61358;SDS011;47228;46.762;23.598;2023-04-06T04:06:47;26.40;;;11.80;;
61358;SDS011;47228;46.762;23.598;2023-04-06T04:09:15;22.90;;;11.70;;
61358;SDS011;47228;46.762;23.598;2023-04-06T04:11:43;23.10;;;11.80;;
61358;SDS011;47228;46.762;23.598;2023-04-06T04:14:11;28.20;;;13.50;;
61358;SDS011;47228;46.762;23.598;2023-04-06T04:16:39;26.20;;;13.00;;
61358;SDS011;47228;46.762;23.598;2023-04-06T04:19:08;26.50;;;12.90;;
61358;SDS011;47228;46.762;23.598;2023-04-06T04:21:44;25.90;;;12.40;;
61358;SDS011;47228;46.762;23.598;2023-04-06T04:24:14;26.60;;;13.10;;
61358;SDS011;47228;46.762;23.598;2023-04-06T04:26:42;25.90;;;13.50;;
61358;SDS011;47228;46.762;23.598;2023-04-06T04:29:10;24.60;;;13.30;;
61358;SDS011;47228;46.762;23.598;2023-04-06T04:31:38;23.50;;;12.60;;
61358;SDS011;47228;46.762;23.598;2023-04-06T04:34:06;24.10;;;12.70;;
61358;SDS011;47228;46.762;23.598;2023-04-06T04:36:34;23.50;;;12.50;;
61358;SDS011;47228;46.762;23.598;2023-04-06T04:39:02;22.00;;;11.40;;
61358;SDS011;47228;46.762;23.598;2023-04-06T04:41:30;28.10;;;12.80;;
61358;SDS011;47228;46.762;23.598;2023-04-06T04:43:58;28.20;;;15.00;;
61358;SDS011;47228;46.762;23.598;2023-04-06T04:46:26;26.10;;;12.70;;
61358;SDS011;47228;46.762;23.598;2023-04-06T04:48:54;26.80;;;13.50;;
61358;SDS011;47228;46.762;23.598;2023-04-06T04:51:22;30.60;;;14.90;;
61358;SDS011;47228;46.762;23.598;2023-04-06T04:53:52;34.10;;;16.40;;
61358;SDS011;47228;46.762;23.598;2023-04-06T04:56:20;23.90;;;13.10;;
61358;SDS011;47228;46.762;23.598;2023-04-06T04:58:48;30.90;;;13.70;;
61358;SDS011;47228;46.762;23.598;2023-04-06T05:01:16;27.80;;;13.20;;
61358;SDS011;47228;46.762;23.598;2023-04-06T05:03:44;27.10;;;13.00;;
61358;SDS011;47228;46.762;23.598;2023-04-06T05:06:12;30.00;;;14.50;;
61358;SDS011;47228;46.762;23.598;2023-04-06T05:08:41;25.40;;;13.00;;
61358;SDS011;47228;46.762;23.598;2023-04-06T05:11:09;31.10;;;15.30;;
61358;SDS011;47228;46.762;23.598;2023-04-06T05:13:37;33.60;;;13.70;;
61358;SDS011;47228;46.762;23.598;2023-04-06T05:16:06;26.40;;;14.40;;
61358;SDS011;47228;46.762;23.598;2023-04-06T05:18:34;29.00;;;13.50;;
61358;SDS011;47228;46.762;23.598;2023-04-06T05:21:02;29.20;;;14.20;;
61358;SDS011;47228;46.762;23.598;2023-04-06T05:23:30;25.10;;;13.40;;
61358;SDS011;47228;46.762;23.598;2023-04-06T05:25:58;30.00;;;16.20;;
61358;SDS011;47228;46.762;23.598;2023-04-06T05:28:26;29.10;;;13.80;;
61358;SDS011;47228;46.762;23.598;2023-04-06T05:30:54;32.20;;;15.70;;
61358;SDS011;47228;46.762;23.598;2023-04-06T05:33:25;29.30;;;13.50;;
61358;SDS011;47228;46.762;23.598;2023-04-06T05:35:54;28.00;;;12.60;;
61358;SDS011;47228;46.762;23.598;2023-04-06T05:38:22;29.90;;;14.40;;
61358;SDS011;47228;46.762;23.598;2023-04-06T05:40:50;29.10;;;15.30;;
61358;SDS011;47228;46.762;23.598;2023-04-06T05:43:19;25.70;;;13.40;;
61358;SDS011;47228;46.762;23.598;2023-04-06T05:45:49;27.80;;;14.50;;
61358;SDS011;47228;46.762;23.598;2023-04-06T05:48:17;29.00;;;15.60;;
61358;SDS011;47228;46.762;23.598;2023-04-06T05:50:49;28.90;;;14.50;;
61358;SDS011;47228;46.762;23.598;2023-04-06T05:53:18;28.90;;;14.00;;
61358;SDS011;47228;46.762;23.598;2023-04-06T05:55:46;31.70;;;16.30;;
61358;SDS011;47228;46.762;23.598;2023-04-06T05:58:14;30.80;;;14.50;;
61358;SDS011;47228;46.762;23.598;2023-04-06T06:00:43;82.90;;;16.20;;
61358;SDS011;47228;46.762;23.598;2023-04-06T06:03:13;30.90;;;16.30;;
61358;SDS011;47228;46.762;23.598;2023-04-06T06:05:43;31.20;;;14.70;;
61358;SDS011;47228;46.762;23.598;2023-04-06T06:08:11;26.10;;;13.50;;
61358;SDS011;47228;46.762;23.598;2023-04-06T06:10:39;31.70;;;15.30;;
61358;SDS011;47228;46.762;23.598;2023-04-06T06:13:08;30.60;;;14.40;;
61358;SDS011;47228;46.762;23.598;2023-04-06T06:15:36;30.00;;;15.20;;
61358;SDS011;47228;46.762;23.598;2023-04-06T06:18:04;32.10;;;15.30;;
61358;SDS011;47228;46.762;23.598;2023-04-06T06:20:32;29.90;;;15.40;;
61358;SDS011;47228;46.762;23.598;2023-04-06T06:23:00;34.10;;;14.90;;
61358;SDS011;47228;46.762;23.598;2023-04-06T06:25:28;30.40;;;14.80;;
61358;SDS011;47228;46.762;23.598;2023-04-06T06:27:58;34.20;;;14.80;;
61358;SDS011;47228;46.762;23.598;2023-04-06T06:30:27;30.60;;;14.10;;
61358;SDS011;47228;46.762;23.598;2023-04-06T06:32:55;26.80;;;13.90;;
61358;SDS011;47228;46.762;23.598;2023-04-06T06:35:23;23.40;;;13.00;;
61358;SDS011;47228;46.762;23.598;2023-04-06T06:37:50;23.80;;;12.70;;
61358;SDS011;47228;46.762;23.598;2023-04-06T06:40:19;23.30;;;12.60;;
61358;SDS011;47228;46.762;23.598;2023-04-06T06:42:50;28.80;;;14.40;;
61358;SDS011;47228;46.762;23.598;2023-04-06T06:45:19;29.00;;;13.10;;
61358;SDS011;47228;46.762;23.598;2023-04-06T06:47:47;23.60;;;12.10;;
61358;SDS011;47228;46.762;23.598;2023-04-06T06:50:15;25.00;;;12.00;;
61358;SDS011;47228;46.762;23.598;2023-04-06T06:52:44;24.80;;;12.70;;
61358;SDS011;47228;46.762;23.598;2023-04-06T06:55:12;23.70;;;12.70;;
61358;SDS011;47228;46.762;23.598;2023-04-06T06:57:40;25.40;;;13.00;;
61358;SDS011;47228;46.762;23.598;2023-04-06T07:00:10;24.90;;;12.00;;
61358;SDS011;47228;46.762;23.598;2023-04-06T07:02:40;21.60;;;11.10;;
61358;SDS011;47228;46.762;23.598;2023-04-06T07:05:08;23.50;;;13.00;;
61358;SDS011;47228;46.762;23.598;2023-04-06T07:07:53;24.00;;;11.10;;
61358;SDS011;47228;46.762;23.598;2023-04-06T07:10:22;27.00;;;12.20;;
61358;SDS011;47228;46.762;23.598;2023-04-06T07:12:50;23.50;;;11.90;;
61358;SDS011;47228;46.762;23.598;2023-04-06T07:15:18;25.80;;;12.70;;
61358;SDS011;47228;46.762;23.598;2023-04-06T07:17:47;26.70;;;13.40;;
61358;SDS011;47228;46.762;23.598;2023-04-06T07:20:16;23.90;;;11.00;;
61358;SDS011;47228;46.762;23.598;2023-04-06T07:22:44;26.80;;;12.00;;
61358;SDS011;47228;46.762;23.598;2023-04-06T07:25:12;22.90;;;12.10;;
61358;SDS011;47228;46.762;23.598;2023-04-06T07:27:40;26.20;;;11.40;;
61358;SDS011;47228;46.762;23.598;2023-04-06T07:30:08;21.60;;;11.50;;
61358;SDS011;47228;46.762;23.598;2023-04-06T07:32:36;24.90;;;12.10;;
61358;SDS011;47228;46.762;23.598;2023-04-06T07:35:05;27.40;;;13.50;;
61358;SDS011;47228;46.762;23.598;2023-04-06T07:37:33;24.60;;;12.90;;
61358;SDS011;47228;46.762;23.598;2023-04-06T07:40:01;28.30;;;13.30;;
61358;SDS011;47228;46.762;23.598;2023-04-06T07:42:29;22.50;;;12.30;;
61358;SDS011;47228;46.762;23.598;2023-04-06T07:44:58;25.20;;;12.90;;
61358;SDS011;47228;46.762;23.598;2023-04-06T07:47:26;23.80;;;12.20;;
61358;SDS011;47228;46.762;23.598;2023-04-06T07:49:54;23.10;;;11.50;;
61358;SDS011;47228;46.762;23.598;2023-04-06T07:52:25;28.60;;;12.60;;
61358;SDS011;47228;46.762;23.598;2023-04-06T07:54:53;23.60;;;12.60;;
61358;SDS011;47228;46.762;23.598;2023-04-06T07:57:22;25.80;;;13.40;;
61358;SDS011;47228;46.762;23.598;2023-04-06T07:59:50;24.90;;;12.60;;
61358;SDS011;47228;46.762;23.598;2023-04-06T08:02:18;21.70;;;11.40;;
61358;SDS011;47228;46.762;23.598;2023-04-06T08:04:47;24.90;;;11.80;;
61358;SDS011;47228;46.762;23.598;2023-04-06T08:07:15;22.30;;;11.80;;
61358;SDS011;47228;46.762;23.598;2023-04-06T08:09:43;25.00;;;11.60;;
61358;SDS011;47228;46.762;23.598;2023-04-06T08:12:11;21.70;;;10.90;;
61358;SDS011;47228;46.762;23.598;2023-04-06T08:14:39;18.30;;;10.80;;
61358;SDS011;47228;46.762;23.598;2023-04-06T08:17:07;21.30;;;11.60;;
61358;SDS011;47228;46.762;23.598;2023-04-06T08:19:35;21.20;;;12.20;;
61358;SDS011;47228;46.762;23.598;2023-04-06T08:22:03;22.20;;;11.20;;
61358;SDS011;47228;46.762;23.598;2023-04-06T08:24:30;22.20;;;11.80;;
61358;SDS011;47228;46.762;23.598;2023-04-06T08:26:59;20.60;;;11.10;;
61358;SDS011;47228;46.762;23.598;2023-04-06T08:29:28;19.80;;;11.00;;
61358;SDS011;47228;46.762;23.598;2023-04-06T08:31:56;18.30;;;10.60;;
61358;SDS011;47228;46.762;23.598;2023-04-06T08:34:24;17.20;;;10.50;;
61358;SDS011;47228;46.762;23.598;2023-04-06T08:36:52;18.80;;;10.70;;
61358;SDS011;47228;46.762;23.598;2023-04-06T08:39:20;20.90;;;11.00;;
61358;SDS011;47228;46.762;23.598;2023-04-06T08:41:53;16.40;;;10.00;;
61358;SDS011;47228;46.762;23.598;2023-04-06T08:44:25;15.60;;;9.60;;
61358;SDS011;47228;46.762;23.598;2023-04-06T08:46:54;18.80;;;10.20;;
61358;SDS011;47228;46.762;23.598;2023-04-06T08:49:22;16.60;;;9.60;;
61358;SDS011;47228;46.762;23.598;2023-04-06T08:51:51;15.40;;;9.30;;
61358;SDS011;47228;46.762;23.598;2023-04-06T08:54:19;14.90;;;9.70;;
61358;SDS011;47228;46.762;23.598;2023-04-06T08:56:46;16.30;;;9.50;;
61358;SDS011;47228;46.762;23.598;2023-04-06T08:59:15;16.70;;;9.60;;
61358;SDS011;47228;46.762;23.598;2023-04-06T09:01:44;17.80;;;9.80;;
61358;SDS011;47228;46.762;23.598;2023-04-06T09:04:14;14.50;;;8.80;;
61358;SDS011;47228;46.762;23.598;2023-04-06T09:06:43;12.00;;;8.20;;
61358;SDS011;47228;46.762;23.598;2023-04-06T09:09:11;15.80;;;9.80;;
61358;SDS011;47228;46.762;23.598;2023-04-06T09:11:47;18.00;;;10.80;;
61358;SDS011;47228;46.762;23.598;2023-04-06T09:14:16;16.50;;;10.50;;
61358;SDS011;47228;46.762;23.598;2023-04-06T09:16:45;13.40;;;9.00;;
61358;SDS011;47228;46.762;23.598;2023-04-06T09:19:13;14.80;;;8.40;;
61358;SDS011;47228;46.762;23.598;2023-04-06T09:21:41;12.20;;;8.00;;
61358;SDS011;47228;46.762;23.598;2023-04-06T09:24:09;11.30;;;8.00;;
61358;SDS011;47228;46.762;23.598;2023-04-06T09:26:45;12.70;;;8.70;;
61358;SDS011;47228;46.762;23.598;2023-04-06T09:29:24;12.30;;;7.60;;
61358;SDS011;47228;46.762;23.598;2023-04-06T09:32:04;11.90;;;7.30;;
61358;SDS011;47228;46.762;23.598;2023-04-06T09:34:34;11.40;;;7.40;;
61358;SDS011;47228;46.762;23.598;2023-04-06T09:37:11;9.40;;;6.40;;
61358;SDS011;47228;46.762;23.598;2023-04-06T09:39:43;9.60;;;6.40;;
61358;SDS011;47228;46.762;23.598;2023-04-06T09:42:22;11.50;;;6.40;;
61358;SDS011;47228;46.762;23.598;2023-04-06T09:44:54;10.10;;;6.50;;
61358;SDS011;47228;46.762;23.598;2023-04-06T09:47:22;11.40;;;6.90;;
61358;SDS011;47228;46.762;23.598;2023-04-06T09:49:58;9.50;;;6.60;;
61358;SDS011;47228;46.762;23.598;2023-04-06T09:52:28;10.20;;;6.10;;
61358;SDS011;47228;46.762;23.598;2023-04-06T09:55:01;10.20;;;6.30;;
61358;SDS011;47228;46.762;23.598;2023-04-06T10:00:13;8.40;;;6.30;;
61358;SDS011;47228;46.762;23.598;2023-04-06T10:05:43;10.40;;;7.20;;
61358;SDS011;47228;46.762;23.598;2023-04-06T10:08:18;10.00;;;6.30;;
61358;SDS011;47228;46.762;23.598;2023-04-06T10:10:48;11.10;;;6.90;;
61358;SDS011;47228;46.762;23.598;2023-04-06T10:13:18;9.10;;;6.50;;
61358;SDS011;47228;46.762;23.598;2023-04-06T10:15:47;10.70;;;7.10;;
61358;SDS011;47228;46.762;23.598;2023-04-06T10:18:16;12.20;;;6.60;;
61358;SDS011;47228;46.762;23.598;2023-04-06T10:20:54;10.10;;;6.50;;
61358;SDS011;47228;46.762;23.598;2023-04-06T10:26:15;10.10;;;5.80;;
61358;SDS011;47228;46.762;23.598;2023-04-06T10:28:45;7.70;;;5.80;;
61358;SDS011;47228;46.762;23.598;2023-04-06T10:31:14;6.80;;;5.30;;
61358;SDS011;47228;46.762;23.598;2023-04-06T10:33:52;7.30;;;5.50;;
61358;SDS011;47228;46.762;23.598;2023-04-06T10:36:23;7.60;;;5.60;;
61358;SDS011;47228;46.762;23.598;2023-04-06T10:38:57;9.60;;;6.10;;
61358;SDS011;47228;46.762;23.598;2023-04-06T10:41:33;8.00;;;5.60;;
61358;SDS011;47228;46.762;23.598;2023-04-06T10:44:02;7.90;;;5.80;;
61358;SDS011;47228;46.762;23.598;2023-04-06T10:46:30;9.80;;;5.90;;
61358;SDS011;47228;46.762;23.598;2023-04-06T10:49:09;10.00;;;5.90;;
61358;SDS011;47228;46.762;23.598;2023-04-06T10:51:41;9.80;;;5.70;;
61358;SDS011;47228;46.762;23.598;2023-04-06T10:54:09;7.40;;;4.80;;
61358;SDS011;47228;46.762;23.598;2023-04-06T10:56:39;6.60;;;4.50;;
61358;SDS011;47228;46.762;23.598;2023-04-06T10:59:07;6.30;;;4.70;;
61358;SDS011;47228;46.762;23.598;2023-04-06T11:01:35;7.30;;;4.70;;
61358;SDS011;47228;46.762;23.598;2023-04-06T11:04:03;6.10;;;4.80;;
61358;SDS011;47228;46.762;23.598;2023-04-06T11:06:31;6.70;;;4.80;;
61358;SDS011;47228;46.762;23.598;2023-04-06T11:09:00;6.00;;;4.50;;
61358;SDS011;47228;46.762;23.598;2023-04-06T11:11:28;6.00;;;4.30;;
61358;SDS011;47228;46.762;23.598;2023-04-06T11:13:57;6.60;;;4.70;;
61358;SDS011;47228;46.762;23.598;2023-04-06T11:16:32;7.50;;;5.20;;
61358;SDS011;47228;46.762;23.598;2023-04-06T11:19:01;6.30;;;4.60;;
61358;SDS011;47228;46.762;23.598;2023-04-06T11:21:31;6.90;;;5.10;;
61358;SDS011;47228;46.762;23.598;2023-04-06T11:24:07;6.20;;;4.10;;
61358;SDS011;47228;46.762;23.598;2023-04-06T11:26:39;6.30;;;4.40;;
61358;SDS011;47228;46.762;23.598;2023-04-06T11:29:11;5.90;;;4.10;;
61358;SDS011;47228;46.762;23.598;2023-04-06T11:31:42;5.80;;;4.10;;
61358;SDS011;47228;46.762;23.598;2023-04-06T11:34:18;5.40;;;4.10;;
61358;SDS011;47228;46.762;23.598;2023-04-06T11:36:49;6.30;;;4.20;;
61358;SDS011;47228;46.762;23.598;2023-04-06T11:39:22;5.70;;;3.70;;
61358;SDS011;47228;46.762;23.598;2023-04-06T11:41:52;5.10;;;4.00;;
61358;SDS011;47228;46.762;23.598;2023-04-06T11:44:37;6.70;;;4.50;;
61358;SDS011;47228;46.762;23.598;2023-04-06T11:47:07;6.70;;;4.70;;
61358;SDS011;47228;46.762;23.598;2023-04-06T11:49:38;5.50;;;4.00;;
61358;SDS011;47228;46.762;23.598;2023-04-06T11:52:24;6.10;;;4.50;;
61358;SDS011;47228;46.762;23.598;2023-04-06T11:54:53;5.30;;;4.30;;
61358;SDS011;47228;46.762;23.598;2023-04-06T11:57:22;5.70;;;4.20;;
61358;SDS011;47228;46.762;23.598;2023-04-06T11:59:53;5.50;;;4.30;;
61358;SDS011;47228;46.762;23.598;2023-04-06T12:02:21;6.20;;;4.60;;
61358;SDS011;47228;46.762;23.598;2023-04-06T12:04:49;6.00;;;4.50;;
61358;SDS011;47228;46.762;23.598;2023-04-06T12:07:17;6.30;;;4.50;;
61358;SDS011;47228;46.762;23.598;2023-04-06T12:09:46;6.80;;;4.60;;
61358;SDS011;47228;46.762;23.598;2023-04-06T12:12:14;6.50;;;4.60;;
61358;SDS011;47228;46.762;23.598;2023-04-06T12:14:42;5.70;;;4.50;;
61358;SDS011;47228;46.762;23.598;2023-04-06T12:17:10;6.30;;;4.60;;
61358;SDS011;47228;46.762;23.598;2023-04-06T12:19:37;6.00;;;4.60;;
61358;SDS011;47228;46.762;23.598;2023-04-06T12:22:06;6.70;;;5.20;;
61358;SDS011;47228;46.762;23.598;2023-04-06T12:24:35;5.90;;;4.50;;
61358;SDS011;47228;46.762;23.598;2023-04-06T12:27:03;11.20;;;5.10;;
61358;SDS011;47228;46.762;23.598;2023-04-06T12:29:37;7.80;;;4.40;;
61358;SDS011;47228;46.762;23.598;2023-04-06T12:32:06;6.00;;;4.10;;
61358;SDS011;47228;46.762;23.598;2023-04-06T12:34:34;5.00;;;3.90;;
61358;SDS011;47228;46.762;23.598;2023-04-06T12:37:02;5.70;;;4.40;;
61358;SDS011;47228;46.762;23.598;2023-04-06T12:39:30;5.40;;;4.30;;
61358;SDS011;47228;46.762;23.598;2023-04-06T12:41:58;5.80;;;4.40;;
61358;SDS011;47228;46.762;23.598;2023-04-06T12:44:26;5.40;;;3.80;;
61358;SDS011;47228;46.762;23.598;2023-04-06T12:46:54;4.80;;;3.60;;
61358;SDS011;47228;46.762;23.598;2023-04-06T12:49:23;4.80;;;3.60;;
61358;SDS011;47228;46.762;23.598;2023-04-06T12:51:51;5.00;;;3.80;;
61358;SDS011;47228;46.762;23.598;2023-04-06T12:54:19;5.20;;;3.90;;
61358;SDS011;47228;46.762;23.598;2023-04-06T12:56:47;6.20;;;3.70;;
61358;SDS011;47228;46.762;23.598;2023-04-06T12:59:15;4.80;;;3.60;;
61358;SDS011;47228;46.762;23.598;2023-04-06T13:01:44;3.40;;;3.00;;
61358;SDS011;47228;46.762;23.598;2023-04-06T13:04:13;4.20;;;3.30;;
61358;SDS011;47228;46.762;23.598;2023-04-06T13:06:41;4.40;;;3.50;;
61358;SDS011;47228;46.762;23.598;2023-04-06T13:09:09;3.90;;;3.30;;
61358;SDS011;47228;46.762;23.598;2023-04-06T13:11:37;4.60;;;3.70;;
61358;SDS011;47228;46.762;23.598;2023-04-06T13:14:06;4.50;;;3.40;;
61358;SDS011;47228;46.762;23.598;2023-04-06T13:16:34;5.20;;;3.50;;
61358;SDS011;47228;46.762;23.598;2023-04-06T13:19:04;4.60;;;3.80;;
61358;SDS011;47228;46.762;23.598;2023-04-06T13:21:32;3.80;;;3.40;;
61358;SDS011;47228;46.762;23.598;2023-04-06T13:24:01;5.90;;;4.20;;
61358;SDS011;47228;46.762;23.598;2023-04-06T13:26:29;5.10;;;3.70;;
61358;SDS011;47228;46.762;23.598;2023-04-06T13:28:58;5.10;;;3.50;;
61358;SDS011;47228;46.762;23.598;2023-04-06T13:31:28;4.80;;;3.50;;
61358;SDS011;47228;46.762;23.598;2023-04-06T13:33:57;4.20;;;3.40;;
61358;SDS011;47228;46.762;23.598;2023-04-06T13:36:25;4.60;;;3.20;;
61358;SDS011;47228;46.762;23.598;2023-04-06T13:38:55;4.40;;;3.50;;
61358;SDS011;47228;46.762;23.598;2023-04-06T13:41:24;5.00;;;3.90;;
61358;SDS011;47228;46.762;23.598;2023-04-06T13:43:54;4.90;;;3.60;;
61358;SDS011;47228;46.762;23.598;2023-04-06T13:46:22;3.40;;;3.00;;
61358;SDS011;47228;46.762;23.598;2023-04-06T13:48:52;4.30;;;3.20;;
61358;SDS011;47228;46.762;23.598;2023-04-06T13:51:20;5.50;;;3.30;;
61358;SDS011;47228;46.762;23.598;2023-04-06T13:53:48;5.50;;;3.20;;
61358;SDS011;47228;46.762;23.598;2023-04-06T13:56:20;4.00;;;3.40;;
61358;SDS011;47228;46.762;23.598;2023-04-06T13:58:48;5.90;;;4.40;;
61358;SDS011;47228;46.762;23.598;2023-04-06T14:01:16;6.00;;;4.10;;
61358;SDS011;47228;46.762;23.598;2023-04-06T14:03:44;6.20;;;4.20;;
61358;SDS011;47228;46.762;23.598;2023-04-06T14:06:15;5.40;;;4.00;;
61358;SDS011;47228;46.762;23.598;2023-04-06T14:08:46;4.70;;;3.50;;
61358;SDS011;47228;46.762;23.598;2023-04-06T14:11:14;6.00;;;3.70;;
61358;SDS011;47228;46.762;23.598;2023-04-06T14:13:42;5.50;;;3.90;;
61358;SDS011;47228;46.762;23.598;2023-04-06T14:16:10;5.20;;;3.80;;
61358;SDS011;47228;46.762;23.598;2023-04-06T14:18:38;5.10;;;3.70;;
61358;SDS011;47228;46.762;23.598;2023-04-06T14:21:06;4.10;;;3.20;;
61358;SDS011;47228;46.762;23.598;2023-04-06T14:23:34;4.20;;;3.60;;
61358;SDS011;47228;46.762;23.598;2023-04-06T14:26:06;4.30;;;3.50;;
61358;SDS011;47228;46.762;23.598;2023-04-06T14:28:35;5.90;;;3.70;;
61358;SDS011;47228;46.762;23.598;2023-04-06T14:31:09;4.60;;;3.50;;
61358;SDS011;47228;46.762;23.598;2023-04-06T14:33:39;5.80;;;3.20;;
61358;SDS011;47228;46.762;23.598;2023-04-06T14:36:08;5.30;;;3.70;;
61358;SDS011;47228;46.762;23.598;2023-04-06T14:38:37;3.60;;;3.30;;
61358;SDS011;47228;46.762;23.598;2023-04-06T14:41:05;4.60;;;3.70;;